Time;durP1;ratioP1;P1;durP2;ratioP2;P2;SDS_P1;SDS_P2;PMS_P1;PMS_P2;Temp;Humidity;BMP_temperature;BMP_pressure;BME280_temperature;BME280_humidity;BME280_pressure;Samples;Min_cycle;Max_cycle;Signal;HPM_P1;HPM_P2
2022/05/29 00:00:46;;;;;;;14.33;5.60;;;;;;;10.16;95.53;101335.09;5028628;28;20217;-72
2022/05/29 00:03:13;;;;;;;21.03;6.30;;;;;;;10.07;95.09;101324.56;5035089;28;20230;-72
2022/05/29 00:05:39;;;;;;;16.90;5.43;;;;;;;10.08;95.55;101323.75;5029390;28;20197;-72
2022/05/29 00:08:06;;;;;;;18.47;5.90;;;;;;;10.05;95.40;101322.81;5028555;28;20858;-72
2022/05/29 00:10:35;;;;;;;15.93;5.87;;;;;;;10.02;95.43;101323.53;5013443;28;20202;-72
2022/05/29 00:13:00;;;;;;;19.23;5.73;;;;;;;10.03;95.31;101319.28;5032010;28;20214;-72
2022/05/29 00:15:26;;;;;;;19.50;6.40;;;;;;;10.01;95.46;101318.38;5032124;28;20238;-72
2022/05/29 00:17:51;;;;;;;16.70;5.60;;;;;;;10.03;96.06;101320.16;5032280;28;20250;-72
2022/05/29 00:20:16;;;;;;;16.57;5.80;;;;;;;10.05;96.09;101320.25;5031962;28;20194;-72
2022/05/29 00:22:42;;;;;;;22.80;6.07;;;;;;;10.06;95.90;101314.28;5032213;28;20190;-72
2022/05/29 00:25:09;;;;;;;13.47;5.97;;;;;;;10.12;95.65;101322.13;5031697;28;20218;-72
2022/05/29 00:27:35;;;;;;;18.00;6.23;;;;;;;10.02;96.05;101312.44;5032072;28;20210;-72
2022/05/29 00:30:00;;;;;;;16.70;5.97;;;;;;;10.02;96.12;101312.44;5031313;28;20194;-72
2022/05/29 00:32:26;;;;;;;13.67;6.17;;;;;;;10.01;95.88;101310.72;5030931;28;20202;-72
2022/05/29 00:34:51;;;;;;;19.77;6.10;;;;;;;9.93;96.25;101302.81;5014417;28;20221;-72
2022/05/29 00:37:17;;;;;;;18.87;6.07;;;;;;;9.96;96.22;101300.31;5031473;28;20718;-72
2022/05/29 00:39:42;;;;;;;11.30;5.13;;;;;;;9.94;96.27;101296.88;5014227;28;20655;-72
2022/05/29 00:42:10;;;;;;;17.73;6.17;;;;;;;9.93;96.55;101301.94;5030855;28;20194;-72
2022/05/29 00:44:36;;;;;;;17.43;6.33;;;;;;;9.91;96.67;101301.88;5013986;28;20190;-72
2022/05/29 00:47:19;;;;;;;17.77;5.97;;;;;;;9.88;96.53;101294.13;5031272;28;20210;-72
2022/05/29 00:49:47;;;;;;;17.80;6.53;;;;;;;9.93;96.45;101301.94;5013986;28;20197;-72
2022/05/29 00:52:19;;;;;;;16.90;6.10;;;;;;;9.93;95.94;101295.13;5012928;28;20221;-72
2022/05/29 00:54:56;;;;;;;19.13;6.37;;;;;;;9.95;96.70;101301.16;5035357;28;20228;-72
2022/05/29 00:57:31;;;;;;;15.23;5.77;;;;;;;9.98;96.65;101297.81;5031671;28;20220;-73
2022/05/29 01:00:01;;;;;;;19.77;6.40;;;;;;;9.99;96.21;101296.97;5031337;28;20833;-72
2022/05/29 01:02:26;;;;;;;19.67;5.93;;;;;;;9.94;96.80;101296.00;5031163;28;20186;-72
2022/05/29 01:04:51;;;;;;;20.83;7.00;;;;;;;9.88;96.21;101289.03;5031063;28;20282;-72
2022/05/29 01:07:21;;;;;;;19.27;6.57;;;;;;;9.82;96.87;101293.09;5031313;28;20245;-72
2022/05/29 01:09:48;;;;;;;19.30;6.60;;;;;;;9.82;96.36;101287.97;5030965;28;20548;-72
2022/05/29 01:12:36;;;;;;;20.20;6.20;;;;;;;9.75;96.27;101286.03;5031108;28;20232;-72
2022/05/29 01:15:13;;;;;;;23.70;6.53;;;;;;;9.77;97.16;101284.41;5030582;28;20212;-72
2022/05/29 01:18:23;;;;;;;21.33;6.90;;;;;;;9.74;96.82;101282.63;5013462;28;20206;-72
2022/05/29 01:21:21;;;;;;;22.67;7.40;;;;;;;9.74;97.00;101276.66;5030368;28;20199;-73
2022/05/29 01:24:05;;;;;;;22.90;6.67;;;;;;;9.73;96.43;101282.59;5031130;28;20193;-72
2022/05/29 01:26:57;;;;;;;23.33;7.17;;;;;;;9.69;96.59;101280.75;5030596;28;20226;-72
2022/05/29 01:29:55;;;;;;;20.97;7.03;;;;;;;9.67;96.94;101278.16;5031177;28;20201;-72
2022/05/29 01:32:47;;;;;;;17.67;7.37;;;;;;;9.71;96.59;101276.53;5030481;28;20266;-72
2022/05/29 01:35:16;;;;;;;22.77;7.40;;;;;;;9.69;96.73;101273.09;5030885;28;20236;-72
2022/05/29 01:37:53;;;;;;;28.67;8.20;;;;;;;9.69;97.13;101281.63;5012184;28;20212;-72
2022/05/29 01:40:41;;;;;;;25.77;7.13;;;;;;;9.68;97.06;101277.31;4993285;28;20183;-72
2022/05/29 01:43:32;;;;;;;17.77;6.50;;;;;;;9.69;97.03;101273.09;5026757;28;20193;-72
2022/05/29 01:46:07;;;;;;;20.10;6.90;;;;;;;9.62;97.20;101272.03;5012937;28;20252;-72
2022/05/29 01:49:10;;;;;;;20.93;6.80;;;;;;;9.65;97.19;101271.25;5029044;28;20245;-72
2022/05/29 01:51:40;;;;;;;15.37;6.50;;;;;;;9.67;97.08;101262.81;5030335;28;20186;-72
2022/05/29 01:54:18;;;;;;;23.03;7.30;;;;;;;9.70;97.29;101265.47;5011491;28;20189;-72
2022/05/29 01:56:51;;;;;;;19.63;6.70;;;;;;;9.70;96.95;101267.16;5030465;28;20634;-72
2022/05/29 01:59:45;;;;;;;23.93;6.97;;;;;;;9.70;97.43;101260.34;5029695;28;20649;-72
2022/05/29 02:02:15;;;;;;;22.77;6.70;;;;;;;9.73;96.46;101265.53;5012477;28;20182;-72
2022/05/29 02:04:46;;;;;;;18.43;6.53;;;;;;;9.70;96.99;101252.69;5029675;28;20719;-72
2022/05/29 02:10:21;;;;;;;24.23;6.63;;;;;;;9.73;97.30;101260.41;5030034;28;20657;-72
2022/05/29 02:13:12;;;;;;;27.30;7.23;;;;;;;9.72;96.67;101248.47;5028315;28;20197;-72
2022/05/29 02:15:42;;;;;;;18.90;6.60;;;;;;;9.67;96.90;101255.13;5029584;28;20271;-72
2022/05/29 02:18:16;;;;;;;25.53;8.00;;;;;;;9.67;97.25;101255.13;5029572;28;20221;-72
2022/05/29 02:20:45;;;;;;;27.60;7.77;;;;;;;9.65;96.83;101249.13;5029818;28;20198;-72
2022/05/29 02:23:20;;;;;;;18.23;6.50;;;;;;;9.66;97.05;101244.84;5028994;28;20190;-72
2022/05/29 02:25:46;;;;;;;18.20;6.53;;;;;;;9.67;97.21;101251.75;5029514;28;20192;-72
2022/05/29 02:28:24;;;;;;;17.90;6.67;;;;;;;9.66;97.11;101240.63;5029360;28;20663;-72
2022/05/29 02:31:04;;;;;;;20.17;7.07;;;;;;;9.67;97.53;101250.03;5012007;28;20190;-72
2022/05/29 02:34:02;;;;;;;21.73;7.50;;;;;;;9.64;97.15;101237.13;5027875;28;20251;-72
2022/05/29 02:36:40;;;;;;;19.73;6.60;;;;;;;9.66;96.71;101239.75;5021458;28;20449;-72
2022/05/29 02:39:17;;;;;;;24.97;7.43;;;;;;;9.66;97.18;101239.75;5029389;28;20186;-72
2022/05/29 02:42:12;;;;;;;21.63;6.60;;;;;;;9.65;97.19;101231.22;5011669;28;20244;-72
2022/05/29 02:45:05;;;;;;;17.87;7.90;;;;;;;9.66;97.58;101222.72;5029245;28;20636;-72
2022/05/29 02:47:52;;;;;;;26.07;7.10;;;;;;;9.66;96.68;101224.41;5010676;28;20210;-72
2022/05/29 02:50:20;;;;;;;20.00;7.60;;;;;;;9.64;97.21;101220.94;5029002;28;20189;-72
2022/05/29 02:52:45;;;;;;;23.43;7.37;;;;;;;9.62;96.93;101213.22;5029095;28;20703;-72
2022/05/29 02:55:11;;;;;;;22.23;6.63;;;;;;;9.65;96.44;101218.44;5011278;28;20269;-72
2022/05/29 02:57:38;;;;;;;23.20;6.20;;;;;;;9.63;96.67;101217.53;5028650;28;20241;-72
2022/05/29 03:00:11;;;;;;;22.57;6.60;;;;;;;9.65;96.48;101215.00;5029593;28;20332;-72
2022/05/29 03:02:54;;;;;;;19.07;6.17;;;;;;;9.66;96.57;101209.06;5028913;28;20244;-72
2022/05/29 03:05:31;;;;;;;20.67;6.33;;;;;;;9.65;96.65;101212.44;5029526;28;20190;-72
2022/05/29 03:08:23;;;;;;;24.63;6.63;;;;;;;9.65;96.20;101210.78;5028970;28;20298;-72
2022/05/29 03:11:07;;;;;;;22.03;6.50;;;;;;;9.64;96.19;101208.16;5029438;28;20659;-72
2022/05/29 03:13:52;;;;;;;20.87;7.00;;;;;;;9.60;96.35;101208.91;5028736;28;20552;-72
2022/05/29 03:16:31;;;;;;;21.03;6.37;;;;;;;9.61;96.24;101219.19;5029081;28;20690;-72
2022/05/29 03:19:16;;;;;;;23.77;6.67;;;;;;;9.58;96.18;101215.66;5028895;28;20190;-72
2022/05/29 03:21:47;;;;;;;23.40;5.97;;;;;;;9.59;95.77;101210.56;5029263;28;20183;-72
2022/05/29 03:24:22;;;;;;;23.33;6.87;;;;;;;9.57;96.46;101212.25;5010922;28;20198;-72
2022/05/29 03:26:56;;;;;;;26.03;6.77;;;;;;;9.57;96.22;101208.81;5029154;28;20308;-72
2022/05/29 03:29:32;;;;;;;20.03;6.13;;;;;;;9.58;96.51;101213.13;5028690;28;20232;-73
2022/05/29 03:31:58;;;;;;;17.97;6.90;;;;;;;9.59;96.38;101212.28;5029173;28;20190;-72
2022/05/29 03:34:23;;;;;;;24.13;6.47;;;;;;;9.60;96.65;101211.47;5028617;28;20246;-72
2022/05/29 03:36:50;;;;;;;16.90;6.23;;;;;;;9.58;96.92;101216.53;5011456;28;20302;-72
2022/05/29 03:39:17;;;;;;;24.20;6.53;;;;;;;9.62;96.60;101214.91;5029023;28;20193;-72
2022/05/29 03:41:48;;;;;;;19.83;6.63;;;;;;;9.58;96.77;101211.41;5010861;28;20237;-72
2022/05/29 03:44:16;;;;;;;22.13;6.47;;;;;;;9.57;97.07;101214.78;5030708;28;20198;-72
2022/05/29 03:46:44;;;;;;;16.77;6.47;;;;;;;9.58;96.72;101213.97;5032311;28;20241;-72
2022/05/29 03:49:11;;;;;;;21.20;6.77;;;;;;;9.59;97.20;101207.16;5032879;28;20178;-72
2022/05/29 03:51:37;;;;;;;23.57;7.10;;;;;;;9.61;97.21;101208.94;5032345;28;20241;-72
2022/05/29 03:54:03;;;;;;;24.83;7.17;;;;;;;9.56;97.25;101207.06;5014829;28;20640;-72
2022/05/29 03:56:28;;;;;;;17.97;6.60;;;;;;;9.60;97.04;101201.22;5014587;28;20186;-72
2022/05/29 03:58:54;;;;;;;28.17;8.20;;;;;;;9.58;97.35;101201.19;5032605;28;20193;-72
2022/05/29 04:01:19;;;;;;;20.63;6.13;;;;;;;9.57;97.29;101198.56;5032886;28;20643;-72
2022/05/29 04:03:44;;;;;;;25.10;7.13;;;;;;;9.59;96.84;101194.41;5032253;28;20202;-72
2022/05/29 04:06:10;;;;;;;20.47;6.80;;;;;;;9.61;96.78;101202.97;5032461;28;20186;-72
2022/05/29 04:14:04;;;;;;;22.90;7.43;;;;;;;9.63;97.27;101191.94;5031850;28;20186;-72
2022/05/29 04:16:29;;;;;;;16.80;6.70;;;;;;;9.67;97.04;101196.34;5014412;28;20198;-72
2022/05/29 04:18:55;;;;;;;21.07;6.37;;;;;;;9.65;97.14;101190.31;5032160;28;20190;-72
2022/05/29 04:21:20;;;;;;;18.53;6.77;;;;;;;9.66;97.16;101191.16;5032059;28;20245;-72
2022/05/29 04:23:46;;;;;;;22.23;7.17;;;;;;;9.66;97.67;101193.72;5032096;28;20194;-72
2022/05/29 04:26:15;;;;;;;20.40;6.77;;;;;;;9.68;97.61;101187.00;5031759;28;20198;-72
2022/05/29 04:28:41;;;;;;;19.73;6.67;;;;;;;9.71;98.12;101181.94;5031999;28;20276;-72
2022/05/29 04:31:06;;;;;;;24.33;7.10;;;;;;;9.73;97.76;101186.28;5031689;28;20229;-72
2022/05/29 04:33:32;;;;;;;22.13;6.50;;;;;;;9.74;96.92;101193.16;5031718;28;20190;-72
2022/05/29 04:35:57;;;;;;;22.83;6.23;;;;;;;9.79;97.67;101191.56;5031448;28;20581;-72
2022/05/29 04:38:24;;;;;;;19.10;7.33;;;;;;;9.82;97.05;101188.25;5031760;28;20217;-72
2022/05/29 04:40:49;;;;;;;25.80;6.87;;;;;;;9.84;96.93;101191.69;5031862;28;20183;-72
2022/05/29 04:43:15;;;;;;;19.13;6.23;;;;;;;9.86;97.34;101187.50;5031246;28;20685;-72
2022/05/29 04:45:43;;;;;;;21.93;6.40;;;;;;;9.85;96.65;101190.84;5031793;28;20187;-72
2022/05/29 04:48:09;;;;;;;12.97;5.53;;;;;;;9.89;96.67;101190.13;5031227;28;20213;-72
2022/05/29 04:50:36;;;;;;;20.83;6.30;;;;;;;9.92;96.84;101185.09;5031681;28;20561;-71
2022/05/29 04:53:02;;;;;;;20.87;7.13;;;;;;;9.88;96.48;101189.28;5031094;28;20194;-72
2022/05/29 04:55:27;;;;;;;20.93;6.63;;;;;;;9.84;96.14;101189.13;5030318;28;20206;-72
2022/05/29 04:57:53;;;;;;;22.97;6.17;;;;;;;9.89;95.93;101185.88;5031472;28;20734;-72
2022/05/29 05:00:18;;;;;;;24.20;6.53;;;;;;;9.92;96.74;101178.31;5031184;28;20186;-72
2022/05/29 05:02:44;;;;;;;21.93;6.77;;;;;;;9.98;96.49;101175.91;5031336;28;20197;-72
2022/05/29 05:05:10;;;;;;;20.10;6.40;;;;;;;9.94;96.24;101176.66;5031047;28;20182;-72
2022/05/29 05:07:36;;;;;;;22.63;6.40;;;;;;;9.97;96.38;101179.28;5013658;28;20230;-72
2022/05/29 05:10:06;;;;;;;20.17;6.87;;;;;;;9.96;96.86;101169.88;5030928;28;20727;-72
2022/05/29 05:12:32;;;;;;;19.20;6.43;;;;;;;9.88;96.72;101178.16;5031317;28;20560;-72
2022/05/29 05:14:57;;;;;;;20.77;6.50;;;;;;;9.94;96.52;101171.53;5013334;28;20213;-72
2022/05/29 05:17:23;;;;;;;25.50;6.93;;;;;;;9.98;96.24;101178.47;5013573;28;20248;-72
2022/05/29 05:19:48;;;;;;;19.80;6.47;;;;;;;9.94;96.33;101168.09;5031321;28;20187;-72
2022/05/29 05:22:13;;;;;;;22.17;6.83;;;;;;;9.99;96.72;101175.06;5030796;28;20277;-72
2022/05/29 05:24:39;;;;;;;15.10;5.97;;;;;;;10.07;96.53;101182.97;5013050;28;20303;-72
2022/05/29 05:27:06;;;;;;;17.57;6.57;;;;;;;10.06;96.37;101174.47;5012699;28;20213;-72
2022/05/29 05:29:31;;;;;;;20.93;7.13;;;;;;;10.09;97.17;101174.53;5013233;28;20198;-72
2022/05/29 05:31:56;;;;;;;23.93;6.90;;;;;;;10.14;96.20;101172.94;5012668;28;20194;-72
2022/05/29 05:34:22;;;;;;;25.47;7.03;;;;;;;10.19;96.51;101178.19;5030721;28;20187;-72
2022/05/29 05:36:48;;;;;;;19.43;5.90;;;;;;;10.16;96.63;101179.00;5030814;28;20268;-72
2022/05/29 05:39:13;;;;;;;13.13;5.77;;;;;;;10.22;96.40;101178.25;5012552;28;20186;-72
2022/05/29 05:41:38;;;;;;;22.73;6.47;;;;;;;10.26;95.91;101174.97;5030760;28;20528;-72
2022/05/29 05:44:04;;;;;;;22.67;6.60;;;;;;;10.20;95.83;101170.56;5029991;28;20187;-72
2022/05/29 05:46:29;;;;;;;19.20;6.03;;;;;;;10.17;95.60;101177.28;5030597;28;20178;-72
2022/05/29 05:48:57;;;;;;;23.13;6.70;;;;;;;10.13;95.66;101178.06;5030085;28;20670;-72
2022/05/29 05:51:23;;;;;;;19.83;6.43;;;;;;;10.22;95.99;101176.56;5030624;28;20218;-72
2022/05/29 05:53:48;;;;;;;20.63;6.17;;;;;;;10.25;96.25;101175.78;5030164;28;20221;-72
2022/05/29 05:56:16;;;;;;;19.17;6.20;;;;;;;10.21;95.91;101181.66;5029561;28;20234;-72
2022/05/29 05:58:45;;;;;;;20.27;6.33;;;;;;;10.24;96.07;101177.50;5030360;28;20191;-72
2022/05/29 06:01:15;;;;;;;19.97;7.40;;;;;;;10.33;95.75;101176.84;5029663;28;20194;-72
2022/05/29 06:03:41;;;;;;;19.70;6.70;;;;;;;10.39;96.01;101183.00;5030192;28;20519;-72
2022/05/29 06:06:07;;;;;;;13.30;5.83;;;;;;;10.46;95.56;101176.34;5011992;28;20197;-72
2022/05/29 06:08:32;;;;;;;23.03;6.50;;;;;;;10.50;95.91;101181.56;5028301;28;20230;-72
2022/05/29 06:10:58;;;;;;;15.53;5.30;;;;;;;10.46;95.59;101178.91;5029158;28;20193;-72
2022/05/29 06:13:23;;;;;;;18.73;6.57;;;;;;;10.47;95.54;101181.47;5029856;28;20626;-72
2022/05/29 06:15:49;;;;;;;16.33;6.10;;;;;;;10.53;95.93;101184.22;5030078;28;20695;-72
2022/05/29 06:18:16;;;;;;;22.53;6.60;;;;;;;10.68;95.54;101178.59;5011318;28;20260;-72
2022/05/29 06:20:42;;;;;;;16.40;5.87;;;;;;;10.75;95.28;101178.78;5030499;28;20197;-72
2022/05/29 06:23:08;;;;;;;17.77;6.03;;;;;;;10.77;95.25;101179.69;5029146;28;20202;-72
2022/05/29 06:25:34;;;;;;;15.37;5.73;;;;;;;10.86;95.54;101176.47;5030054;28;20194;-71
2022/05/29 06:28:01;;;;;;;19.33;6.07;;;;;;;10.89;95.45;101176.53;5029010;28;20302;-71
2022/05/29 06:30:28;;;;;;;16.07;5.77;;;;;;;10.89;95.16;101182.53;5029940;28;20186;-72
2022/05/29 06:32:54;;;;;;;17.53;6.17;;;;;;;10.97;95.00;101185.28;5028473;28;20274;-72
2022/05/29 06:35:19;;;;;;;19.30;6.57;;;;;;;11.01;94.53;101175.13;5029333;28;20748;-72
2022/05/29 06:37:45;;;;;;;20.63;5.63;;;;;;;11.01;94.27;101182.81;5029915;28;20218;-72
2022/05/29 06:40:12;;;;;;;21.03;5.00;;;;;;;11.30;93.71;101180.91;5011572;28;20205;-72
2022/05/29 06:42:38;;;;;;;15.70;5.50;;;;;;;11.36;93.54;101179.34;5029412;28;20601;-72
2022/05/29 06:45:05;;;;;;;18.70;5.40;;;;;;;11.47;92.72;101180.41;5011528;28;20178;-72
2022/05/29 06:47:30;;;;;;;14.57;5.10;;;;;;;11.59;91.91;101184.94;5029708;28;20214;-72
2022/05/29 06:49:56;;;;;;;14.63;4.70;;;;;;;11.71;91.38;101183.50;5025819;28;20265;-73
2022/05/29 06:52:21;;;;;;;16.90;5.47;;;;;;;11.80;90.61;101177.72;5009797;28;20183;-72
2022/05/29 06:54:46;;;;;;;15.53;4.80;;;;;;;11.94;90.37;101174.56;5009716;28;20210;-73
2022/05/29 06:57:13;;;;;;;18.33;4.80;;;;;;;11.85;90.25;101173.53;5009525;28;20199;-72
2022/05/29 07:07:54;;;;;;;13.90;4.40;;;;;;;12.05;88.96;101179.91;5029195;28;20198;-72
2022/05/29 07:10:19;;;;;;;16.37;4.80;;;;;;;12.06;88.64;101176.50;5029224;28;20186;-72
2022/05/29 07:12:44;;;;;;;13.43;4.17;;;;;;;12.01;89.38;101175.56;5010975;28;20191;-73
2022/05/29 07:15:10;;;;;;;13.97;3.87;;;;;;;12.12;88.20;101174.91;5029464;28;20668;-72
2022/05/29 07:17:36;;;;;;;11.87;4.07;;;;;;;12.20;87.32;101172.47;5029124;28;20210;-72
2022/05/29 07:20:03;;;;;;;12.30;4.13;;;;;;;12.37;87.17;101176.22;5032164;28;20190;-72
2022/05/29 07:22:30;;;;;;;12.87;3.60;;;;;;;12.52;86.31;101167.06;5033346;28;20198;-72
2022/05/29 07:24:56;;;;;;;10.80;3.60;;;;;;;12.58;86.23;101171.47;5032455;28;20257;-72
2022/05/29 07:27:21;;;;;;;11.27;3.50;;;;;;;12.49;86.35;101166.16;5015478;28;20301;-72
2022/05/29 07:29:46;;;;;;;11.03;3.50;;;;;;;12.39;86.21;101180.53;5032812;28;20551;-72
2022/05/29 07:32:12;;;;;;;12.13;3.67;;;;;;;12.39;85.69;101172.84;5033188;28;20578;-72
2022/05/29 07:34:37;;;;;;;9.00;3.47;;;;;;;12.39;86.45;101170.28;5032327;28;20832;-72
2022/05/29 07:37:05;;;;;;;11.77;3.53;;;;;;;12.36;85.45;101179.63;5032998;28;20226;-72
2022/05/29 07:39:36;;;;;;;10.90;3.43;;;;;;;12.29;85.56;101177.78;5014613;28;20202;-72
2022/05/29 07:44:45;;;;;;;12.90;3.60;;;;;;;12.48;85.94;101166.97;5015367;28;20577;-72
2022/05/29 07:47:10;;;;;;;11.60;3.70;;;;;;;12.38;84.98;101168.53;5014873;28;20241;-72
2022/05/29 07:49:38;;;;;;;9.87;3.90;;;;;;;12.36;85.48;101167.63;5032909;28;20182;-72
2022/05/29 07:52:03;;;;;;;13.00;3.70;;;;;;;12.43;85.36;101166.03;5032551;28;20193;-72
2022/05/29 07:54:29;;;;;;;7.57;3.00;;;;;;;12.24;85.89;101162.31;5032751;28;20190;-72
2022/05/29 07:56:54;;;;;;;10.03;3.73;;;;;;;12.27;86.15;101169.19;5032416;28;20241;-72
2022/05/29 07:59:20;;;;;;;13.87;4.30;;;;;;;12.10;86.48;101163.75;5015002;28;20190;-72
2022/05/29 08:01:45;;;;;;;9.57;3.30;;;;;;;12.17;87.97;101173.28;5032487;28;20194;-72
2022/05/29 08:04:10;;;;;;;12.13;4.00;;;;;;;12.28;88.34;101173.50;5031852;28;20190;-72
2022/05/29 08:06:36;;;;;;;10.73;3.57;;;;;;;12.37;88.33;101182.22;5032375;28;20206;-72
2022/05/29 08:09:02;;;;;;;9.53;2.90;;;;;;;12.36;89.22;101172.78;5032100;28;20260;-72
2022/05/29 08:11:27;;;;;;;9.17;3.30;;;;;;;12.29;89.14;101176.09;5026860;28;20914;-73
2022/05/29 08:13:54;;;;;;;9.17;3.30;;;;;;;12.34;88.88;101179.59;5037885;28;20183;-72
2022/05/29 08:16:19;;;;;;;5.73;2.80;;;;;;;12.44;89.88;101166.06;5031552;28;20288;-72
2022/05/29 08:18:45;;;;;;;10.80;3.20;;;;;;;12.48;89.26;101175.56;5031339;28;20655;-73
2022/05/29 08:21:10;;;;;;;10.20;3.67;;;;;;;12.53;89.30;101173.09;5031072;28;20180;-73
2022/05/29 08:23:37;;;;;;;6.40;2.60;;;;;;;12.49;88.77;101169.59;5031102;28;20197;-72
2022/05/29 08:31:31;;;;;;;7.60;2.97;;;;;;;12.35;89.84;101172.78;5028111;28;20262;-71
2022/05/29 08:33:56;;;;;;;6.67;2.50;;;;;;;12.29;90.37;101177.78;5030685;28;20890;-71
2022/05/29 08:36:24;;;;;;;8.67;3.83;;;;;;;12.24;91.89;101174.28;5030886;28;20214;-70
2022/05/29 08:38:55;;;;;;;9.27;3.87;;;;;;;12.18;92.49;101181.88;5031036;28;20186;-71
2022/05/29 08:41:40;;;;;;;11.77;3.53;;;;;;;12.11;92.91;101175.75;5031177;28;20186;-71
2022/05/29 08:44:10;;;;;;;9.67;3.27;;;;;;;12.03;92.60;101166.19;5030628;28;20202;-71
2022/05/29 08:46:38;;;;;;;8.80;3.13;;;;;;;12.12;92.59;101174.06;5031424;28;20199;-71
2022/05/29 08:49:05;;;;;;;8.00;2.80;;;;;;;12.18;92.06;101169.03;5030068;28;20739;-71
2022/05/29 08:51:53;;;;;;;6.47;2.70;;;;;;;12.22;91.78;101165.69;5029850;28;20195;-71
2022/05/29 08:54:38;;;;;;;6.73;2.67;;;;;;;12.26;91.16;101170.88;5028744;28;20585;-70
2022/05/29 08:57:23;;;;;;;7.30;3.10;;;;;;;12.34;91.23;101166.75;5031044;28;20218;-73
2022/05/29 09:00:00;;;;;;;9.50;3.43;;;;;;;12.41;91.58;101166.03;5030178;28;20707;-72
2022/05/29 09:02:49;;;;;;;9.97;3.50;;;;;;;12.45;91.34;101166.94;5029513;28;20204;-73
2022/05/29 09:05:34;;;;;;;5.80;2.80;;;;;;;12.53;90.72;101167.97;5029770;28;20175;-73
2022/05/29 09:08:08;;;;;;;7.83;2.80;;;;;;;12.67;90.62;101164.75;5040770;28;20208;-72
2022/05/29 09:10:40;;;;;;;6.87;2.90;;;;;;;12.70;89.92;101158.78;5050124;28;20174;-72
2022/05/29 09:13:13;;;;;;;7.27;2.93;;;;;;;12.81;88.78;101150.41;5050048;28;20192;-72
2022/05/29 09:15:43;;;;;;;8.90;3.33;;;;;;;13.05;88.36;101161.94;5050073;28;20224;-72
2022/05/29 09:18:19;;;;;;;8.23;3.07;;;;;;;13.32;86.83;101155.47;5050274;28;20213;-72
2022/05/29 09:20:54;;;;;;;9.50;3.70;;;;;;;13.89;85.35;101153.59;5049565;28;20583;-72
2022/05/29 09:23:35;;;;;;;5.83;3.03;;;;;;;14.11;84.54;101152.09;5049957;28;20182;-72
2022/05/29 09:26:06;;;;;;;9.20;3.30;;;;;;;14.29;82.88;101152.31;5050154;28;20204;-72
2022/05/29 09:28:36;;;;;;;9.40;3.00;;;;;;;14.32;81.01;101158.34;5050070;28;20214;-72
2022/05/29 09:31:17;;;;;;;12.80;3.93;;;;;;;14.05;81.32;101162.34;5032235;28;20186;-72
2022/05/29 09:33:43;;;;;;;6.70;2.70;;;;;;;13.84;81.73;101162.97;5048963;28;20182;-72
2022/05/29 09:36:29;;;;;;;7.87;2.93;;;;;;;13.79;83.19;101164.63;5049929;28;20706;-72
2022/05/29 09:39:04;;;;;;;8.77;2.97;;;;;;;13.68;83.79;101163.63;5031384;28;20205;-71
2022/05/29 09:41:36;;;;;;;8.23;2.70;;;;;;;13.45;84.97;101162.47;5032045;28;20323;-71
2022/05/29 09:44:04;;;;;;;8.97;3.20;;;;;;;13.27;85.86;101167.41;5048948;28;20314;-72
2022/05/29 09:46:35;;;;;;;6.63;3.00;;;;;;;13.00;87.14;101167.03;5049699;28;20190;-72
2022/05/29 09:52:01;;;;;;;7.93;3.00;;;;;;;12.93;89.18;101161.72;5049774;28;20523;-71
2022/05/29 09:54:31;;;;;;;6.27;2.50;;;;;;;12.93;89.41;101170.28;5048698;28;20194;-72
2022/05/29 09:57:13;;;;;;;6.03;2.47;;;;;;;12.92;89.16;101163.44;5049552;28;20281;-72
2022/05/29 09:59:43;;;;;;;7.40;2.73;;;;;;;12.88;88.98;101171.94;5048798;28;20277;-71
2022/05/29 10:02:26;;;;;;;4.23;2.70;;;;;;;13.00;89.21;101163.56;5031258;28;20193;-72
2022/05/29 10:04:54;;;;;;;7.50;3.43;;;;;;;13.08;89.07;101164.56;5042651;28;20612;-71
2022/05/29 10:07:36;;;;;;;8.20;3.20;;;;;;;13.22;89.25;101160.47;5023541;28;20217;-72
2022/05/29 10:10:24;;;;;;;8.43;3.30;;;;;;;13.23;88.74;101162.19;5049188;28;20185;-72
2022/05/29 10:12:49;;;;;;;7.50;3.80;;;;;;;13.36;88.15;101166.66;5033894;28;20194;-71
2022/05/29 10:15:37;;;;;;;7.77;3.50;;;;;;;13.09;87.24;101163.72;5027347;28;20698;-72
2022/05/29 10:18:10;;;;;;;8.20;3.70;;;;;;;13.18;87.71;101157.00;5027872;28;20570;-72
2022/05/29 10:20:39;;;;;;;11.60;4.37;;;;;;;13.41;88.24;101162.44;5029305;28;20175;-71
2022/05/29 10:23:11;;;;;;;10.03;3.80;;;;;;;13.54;87.51;101154.88;5028580;28;20265;-72
2022/05/29 10:25:56;;;;;;;8.77;4.20;;;;;;;13.49;87.94;101153.97;5029432;28;20193;-72
2022/05/29 10:28:29;;;;;;;11.40;3.47;;;;;;;13.63;87.21;101159.28;5028676;28;20205;-73
2022/05/29 10:30:57;;;;;;;7.57;4.07;;;;;;;13.50;87.74;101157.41;5028832;28;20578;-72
2022/05/29 10:33:26;;;;;;;7.90;3.70;;;;;;;13.45;87.28;101157.34;5028037;28;20201;-72
2022/05/29 10:35:58;;;;;;;7.77;3.93;;;;;;;13.65;87.88;101161.03;5029105;28;20829;-72
2022/05/29 10:38:28;;;;;;;7.13;3.70;;;;;;;13.61;87.01;101161.84;5028824;28;20210;-72
2022/05/29 10:40:56;;;;;;;8.30;3.70;;;;;;;13.74;86.83;101158.56;5028477;28;20648;-72
2022/05/29 10:43:51;;;;;;;9.67;3.83;;;;;;;13.83;86.92;101160.38;5028437;28;20271;-72
2022/05/29 10:46:21;;;;;;;7.13;3.27;;;;;;;14.01;84.84;101150.28;5010515;28;20187;-72
2022/05/29 10:49:16;;;;;;;6.50;3.33;;;;;;;14.20;84.92;101157.34;5028601;28;20217;-72
2022/05/29 10:52:27;;;;;;;8.30;3.43;;;;;;;14.32;83.21;101160.94;5010782;28;20198;-72
2022/05/29 10:54:58;;;;;;;7.20;3.53;;;;;;;14.27;83.67;101161.75;5002175;28;20228;-72
2022/05/29 10:57:48;;;;;;;6.53;2.90;;;;;;;14.21;84.84;101159.09;5028139;28;20206;-71
2022/05/29 11:00:33;;;;;;;8.30;3.00;;;;;;;14.16;84.72;101165.88;5010409;28;20178;-72
2022/05/29 11:03:23;;;;;;;7.77;2.77;;;;;;;14.18;84.10;101159.06;5028383;28;20178;-72
2022/05/29 11:05:58;;;;;;;9.37;3.77;;;;;;;14.21;85.04;101156.53;5030639;28;20191;-72
2022/05/29 11:08:45;;;;;;;4.37;2.47;;;;;;;14.21;84.10;101161.66;5036442;28;20216;-71
2022/05/29 11:11:19;;;;;;;4.07;2.20;;;;;;;14.17;83.07;101158.19;5027662;28;20218;-72
2022/05/29 11:14:22;;;;;;;4.63;2.50;;;;;;;14.19;83.09;101161.66;5027918;28;20185;-72
2022/05/29 11:17:25;;;;;;;6.10;2.97;;;;;;;14.19;84.14;101146.19;5028620;28;20255;-72
2022/05/29 11:20:16;;;;;;;8.33;2.90;;;;;;;13.87;84.39;101157.88;5028031;28;20190;-72
2022/05/29 11:22:51;;;;;;;6.03;3.00;;;;;;;13.75;84.76;101155.16;5032533;28;20218;-72
2022/05/29 11:25:40;;;;;;;5.70;2.63;;;;;;;13.57;84.93;101154.06;5026382;28;20545;-71
2022/05/29 11:28:28;;;;;;;6.60;2.80;;;;;;;13.70;85.58;101149.09;5028596;28;20268;-71
2022/05/29 11:31:08;;;;;;;7.40;3.13;;;;;;;13.68;86.41;101152.50;5027846;28;20221;-71
2022/05/29 11:33:59;;;;;;;7.77;2.70;;;;;;;13.79;85.36;101141.47;5005866;28;20206;-71
2022/05/29 11:36:43;;;;;;;5.77;2.93;;;;;;;13.89;84.74;101138.13;5028309;28;20584;-71
2022/05/29 11:39:31;;;;;;;7.27;2.93;;;;;;;14.07;84.81;101134.88;5028681;28;20225;-71
2022/05/29 11:42:02;;;;;;;8.17;2.60;;;;;;;14.03;83.48;101141.72;5010814;28;20688;-71
2022/05/29 11:44:43;;;;;;;7.00;3.20;;;;;;;14.11;84.14;101140.09;5028263;28;20197;-71
2022/05/29 11:53:35;;;;;;;4.73;2.73;;;;;;;14.26;82.75;101132.53;5026014;28;20187;-71
2022/05/29 11:56:05;;;;;;;6.83;3.10;;;;;;;14.30;83.85;101128.28;5028837;28;20293;-71
2022/05/29 11:58:39;;;;;;;4.47;3.00;;;;;;;14.29;82.27;101121.41;5027538;28;20252;-71
2022/05/29 12:01:17;;;;;;;5.23;3.10;;;;;;;14.36;83.33;101121.47;5028831;28;20214;-71
2022/05/29 12:03:57;;;;;;;8.40;3.80;;;;;;;14.48;83.18;101110.38;5027833;28;20186;-71
2022/05/29 12:06:47;;;;;;;10.27;3.67;;;;;;;14.66;82.57;101110.53;5031895;28;20536;-71
2022/05/29 12:09:18;;;;;;;5.70;2.83;;;;;;;14.65;82.62;101106.22;5013349;28;20285;-71
2022/05/29 12:11:52;;;;;;;7.00;2.60;;;;;;;14.77;82.01;101106.28;5014256;28;20209;-71
2022/05/29 12:14:35;;;;;;;6.63;2.63;;;;;;;14.76;81.45;101109.72;5031406;28;20186;-71
2022/05/29 12:17:24;;;;;;;5.90;2.23;;;;;;;14.75;81.25;101105.44;5032126;28;20252;-71
2022/05/29 12:20:02;;;;;;;3.73;2.00;;;;;;;14.76;81.06;101109.72;5031656;28;20201;-71